sensor_id;sensor_type;location;lat;lon;timestamp;P1;durP1;ratioP1;P2;durP2;ratioP2
13879;SDS011;7010;48.200;16.332;2022-09-27T00:01:51;3.42;;;3.13;;
13879;SDS011;7010;48.200;16.332;2022-09-27T00:04:19;3.00;;;2.70;;
13879;SDS011;7010;48.200;16.332;2022-09-27T00:06:48;3.83;;;3.53;;
13879;SDS011;7010;48.200;16.332;2022-09-27T00:09:17;7.03;;;3.08;;
13879;SDS011;7010;48.200;16.332;2022-09-27T00:11:46;4.82;;;3.35;;
13879;SDS011;7010;48.200;16.332;2022-09-27T00:14:14;2.33;;;2.22;;
13879;SDS011;7010;48.200;16.332;2022-09-27T00:16:43;2.97;;;2.78;;
13879;SDS011;7010;48.200;16.332;2022-09-27T00:19:12;5.28;;;2.90;;
13879;SDS011;7010;48.200;16.332;2022-09-27T00:21:43;3.33;;;3.03;;
13879;SDS011;7010;48.200;16.332;2022-09-27T00:24:12;2.85;;;2.63;;
13879;SDS011;7010;48.200;16.332;2022-09-27T00:26:43;2.58;;;2.40;;
13879;SDS011;7010;48.200;16.332;2022-09-27T00:29:12;3.40;;;3.10;;
13879;SDS011;7010;48.200;16.332;2022-09-27T00:31:42;3.92;;;2.92;;
13879;SDS011;7010;48.200;16.332;2022-09-27T00:34:15;2.97;;;2.78;;
13879;SDS011;7010;48.200;16.332;2022-09-27T00:36:45;2.88;;;2.67;;
13879;SDS011;7010;48.200;16.332;2022-09-27T00:39:14;2.90;;;2.70;;
13879;SDS011;7010;48.200;16.332;2022-09-27T00:41:44;3.47;;;3.17;;
13879;SDS011;7010;48.200;16.332;2022-09-27T00:46:45;2.83;;;2.58;;
13879;SDS011;7010;48.200;16.332;2022-09-27T00:49:18;2.30;;;2.20;;
13879;SDS011;7010;48.200;16.332;2022-09-27T00:51:51;3.03;;;2.80;;
13879;SDS011;7010;48.200;16.332;2022-09-27T00:54:21;3.05;;;2.78;;
13879;SDS011;7010;48.200;16.332;2022-09-27T00:56:54;3.28;;;3.08;;
13879;SDS011;7010;48.200;16.332;2022-09-27T00:59:25;2.53;;;2.33;;
13879;SDS011;7010;48.200;16.332;2022-09-27T01:01:56;3.72;;;2.88;;
13879;SDS011;7010;48.200;16.332;2022-09-27T01:04:25;2.72;;;2.53;;
13879;SDS011;7010;48.200;16.332;2022-09-27T01:06:55;2.65;;;2.47;;
13879;SDS011;7010;48.200;16.332;2022-09-27T01:09:24;3.78;;;2.40;;
13879;SDS011;7010;48.200;16.332;2022-09-27T01:11:57;3.00;;;2.80;;
13879;SDS011;7010;48.200;16.332;2022-09-27T01:14:40;3.20;;;2.55;;
13879;SDS011;7010;48.200;16.332;2022-09-27T01:17:25;3.30;;;2.97;;
13879;SDS011;7010;48.200;16.332;2022-09-27T01:23:08;2.88;;;2.65;;
13879;SDS011;7010;48.200;16.332;2022-09-27T01:25:58;3.47;;;3.17;;
13879;SDS011;7010;48.200;16.332;2022-09-27T01:28:42;3.53;;;2.90;;
13879;SDS011;7010;48.200;16.332;2022-09-27T01:31:18;7.30;;;3.47;;
13879;SDS011;7010;48.200;16.332;2022-09-27T01:33:55;2.97;;;2.70;;
13879;SDS011;7010;48.200;16.332;2022-09-27T01:36:31;3.40;;;3.10;;
13879;SDS011;7010;48.200;16.332;2022-09-27T01:39:11;3.47;;;3.17;;
13879;SDS011;7010;48.200;16.332;2022-09-27T01:41:48;3.13;;;2.80;;
13879;SDS011;7010;48.200;16.332;2022-09-27T01:44:25;3.00;;;2.80;;
13879;SDS011;7010;48.200;16.332;2022-09-27T01:46:58;5.07;;;2.65;;
13879;SDS011;7010;48.200;16.332;2022-09-27T01:49:31;2.95;;;2.75;;
13879;SDS011;7010;48.200;16.332;2022-09-27T01:52:04;2.58;;;2.40;;
13879;SDS011;7010;48.200;16.332;2022-09-27T01:54:36;4.07;;;3.17;;
13879;SDS011;7010;48.200;16.332;2022-09-27T01:57:08;1.95;;;1.85;;
13879;SDS011;7010;48.200;16.332;2022-09-27T01:59:40;4.22;;;2.70;;
13879;SDS011;7010;48.200;16.332;2022-09-27T02:02:15;3.15;;;2.85;;
13879;SDS011;7010;48.200;16.332;2022-09-27T02:04:49;2.75;;;2.55;;
13879;SDS011;7010;48.200;16.332;2022-09-27T02:07:21;3.33;;;2.63;;
13879;SDS011;7010;48.200;16.332;2022-09-27T02:09:54;3.00;;;2.67;;
13879;SDS011;7010;48.200;16.332;2022-09-27T02:12:27;2.88;;;2.67;;
13879;SDS011;7010;48.200;16.332;2022-09-27T02:15:00;3.38;;;3.08;;
13879;SDS011;7010;48.200;16.332;2022-09-27T02:17:36;2.83;;;2.63;;
13879;SDS011;7010;48.200;16.332;2022-09-27T02:20:12;2.60;;;2.40;;
13879;SDS011;7010;48.200;16.332;2022-09-27T02:22:44;2.88;;;2.67;;
13879;SDS011;7010;48.200;16.332;2022-09-27T02:25:18;2.90;;;2.65;;
13879;SDS011;7010;48.200;16.332;2022-09-27T02:27:54;3.58;;;3.28;;
13879;SDS011;7010;48.200;16.332;2022-09-27T02:30:25;3.35;;;3.15;;
13879;SDS011;7010;48.200;16.332;2022-09-27T02:32:55;3.50;;;3.30;;
13879;SDS011;7010;48.200;16.332;2022-09-27T02:35:25;3.50;;;3.20;;
13879;SDS011;7010;48.200;16.332;2022-09-27T02:37:56;3.78;;;3.47;;
13879;SDS011;7010;48.200;16.332;2022-09-27T02:40:28;3.45;;;3.25;;
13879;SDS011;7010;48.200;16.332;2022-09-27T02:42:59;4.90;;;3.63;;
13879;SDS011;7010;48.200;16.332;2022-09-27T02:45:34;3.92;;;3.60;;
13879;SDS011;7010;48.200;16.332;2022-09-27T02:48:11;3.17;;;2.97;;
13879;SDS011;7010;48.200;16.332;2022-09-27T02:50:55;3.17;;;2.88;;
13879;SDS011;7010;48.200;16.332;2022-09-27T02:53:36;3.08;;;2.88;;
13879;SDS011;7010;48.200;16.332;2022-09-27T02:56:13;3.10;;;2.88;;
13879;SDS011;7010;48.200;16.332;2022-09-27T02:58:53;3.22;;;3.00;;
13879;SDS011;7010;48.200;16.332;2022-09-27T03:01:36;2.92;;;2.72;;
13879;SDS011;7010;48.200;16.332;2022-09-27T03:04:14;3.35;;;2.90;;
13879;SDS011;7010;48.200;16.332;2022-09-27T03:06:48;3.38;;;2.80;;
13879;SDS011;7010;48.200;16.332;2022-09-27T03:09:18;4.32;;;3.92;;
13879;SDS011;7010;48.200;16.332;2022-09-27T03:11:48;3.95;;;3.38;;
13879;SDS011;7010;48.200;16.332;2022-09-27T03:14:16;4.18;;;3.30;;
13879;SDS011;7010;48.200;16.332;2022-09-27T03:16:45;3.42;;;3.13;;
13879;SDS011;7010;48.200;16.332;2022-09-27T03:19:15;3.28;;;3.05;;
13879;SDS011;7010;48.200;16.332;2022-09-27T03:21:43;2.83;;;2.63;;
13879;SDS011;7010;48.200;16.332;2022-09-27T03:24:11;5.20;;;3.35;;
13879;SDS011;7010;48.200;16.332;2022-09-27T03:26:39;3.00;;;2.80;;
13879;SDS011;7010;48.200;16.332;2022-09-27T03:29:07;4.03;;;3.30;;
13879;SDS011;7010;48.200;16.332;2022-09-27T03:31:36;3.03;;;2.72;;
13879;SDS011;7010;48.200;16.332;2022-09-27T03:34:05;2.95;;;2.75;;
13879;SDS011;7010;48.200;16.332;2022-09-27T03:36:34;2.80;;;2.60;;
13879;SDS011;7010;48.200;16.332;2022-09-27T03:39:03;3.67;;;3.25;;
13879;SDS011;7010;48.200;16.332;2022-09-27T03:41:31;3.67;;;2.70;;
13879;SDS011;7010;48.200;16.332;2022-09-27T03:44:00;3.72;;;3.42;;
13879;SDS011;7010;48.200;16.332;2022-09-27T03:46:28;5.40;;;3.05;;
13879;SDS011;7010;48.200;16.332;2022-09-27T03:48:57;3.03;;;2.80;;
13879;SDS011;7010;48.200;16.332;2022-09-27T03:51:25;3.10;;;2.88;;
13879;SDS011;7010;48.200;16.332;2022-09-27T03:53:55;3.78;;;3.45;;
13879;SDS011;7010;48.200;16.332;2022-09-27T03:56:23;3.50;;;3.20;;
13879;SDS011;7010;48.200;16.332;2022-09-27T03:58:51;3.10;;;2.90;;
13879;SDS011;7010;48.200;16.332;2022-09-27T04:01:20;3.00;;;2.80;;
13879;SDS011;7010;48.200;16.332;2022-09-27T04:03:48;3.63;;;3.30;;
13879;SDS011;7010;48.200;16.332;2022-09-27T04:06:16;2.92;;;2.72;;
13879;SDS011;7010;48.200;16.332;2022-09-27T04:08:45;3.72;;;3.42;;
13879;SDS011;7010;48.200;16.332;2022-09-27T04:11:15;4.25;;;3.85;;
13879;SDS011;7010;48.200;16.332;2022-09-27T04:13:43;6.68;;;5.95;;
13879;SDS011;7010;48.200;16.332;2022-09-27T04:16:14;8.55;;;6.47;;
13879;SDS011;7010;48.200;16.332;2022-09-27T04:18:43;5.22;;;4.70;;
13879;SDS011;7010;48.200;16.332;2022-09-27T04:21:11;4.75;;;4.35;;
13879;SDS011;7010;48.200;16.332;2022-09-27T04:23:40;4.07;;;3.78;;
13879;SDS011;7010;48.200;16.332;2022-09-27T04:26:08;4.32;;;3.92;;
13879;SDS011;7010;48.200;16.332;2022-09-27T04:28:38;5.28;;;3.95;;
13879;SDS011;7010;48.200;16.332;2022-09-27T04:31:06;4.57;;;4.18;;
13879;SDS011;7010;48.200;16.332;2022-09-27T04:33:35;4.18;;;3.88;;
13879;SDS011;7010;48.200;16.332;2022-09-27T04:36:03;4.60;;;4.20;;
13879;SDS011;7010;48.200;16.332;2022-09-27T04:38:49;3.63;;;3.33;;
13879;SDS011;7010;48.200;16.332;2022-09-27T04:41:17;3.38;;;3.17;;
13879;SDS011;7010;48.200;16.332;2022-09-27T04:43:50;4.47;;;4.07;;
13879;SDS011;7010;48.200;16.332;2022-09-27T04:46:24;4.28;;;3.97;;
13879;SDS011;7010;48.200;16.332;2022-09-27T04:48:57;4.22;;;3.58;;
13879;SDS011;7010;48.200;16.332;2022-09-27T04:51:25;4.40;;;4.00;;
13879;SDS011;7010;48.200;16.332;2022-09-27T04:53:54;4.05;;;3.65;;
13879;SDS011;7010;48.200;16.332;2022-09-27T04:56:22;3.20;;;2.90;;
13879;SDS011;7010;48.200;16.332;2022-09-27T04:58:53;3.95;;;3.30;;
13879;SDS011;7010;48.200;16.332;2022-09-27T05:01:21;2.85;;;2.58;;
13879;SDS011;7010;48.200;16.332;2022-09-27T05:03:49;3.70;;;3.40;;
13879;SDS011;7010;48.200;16.332;2022-09-27T05:06:17;3.67;;;3.38;;
13879;SDS011;7010;48.200;16.332;2022-09-27T05:08:46;4.03;;;3.22;;
13879;SDS011;7010;48.200;16.332;2022-09-27T05:11:14;3.03;;;2.72;;
13879;SDS011;7010;48.200;16.332;2022-09-27T05:13:43;2.80;;;2.53;;
13879;SDS011;7010;48.200;16.332;2022-09-27T05:16:12;2.70;;;2.50;;
13879;SDS011;7010;48.200;16.332;2022-09-27T05:18:41;3.15;;;2.85;;
13879;SDS011;7010;48.200;16.332;2022-09-27T05:21:09;5.03;;;3.25;;
13879;SDS011;7010;48.200;16.332;2022-09-27T05:23:38;3.35;;;3.08;;
13879;SDS011;7010;48.200;16.332;2022-09-27T05:26:12;3.60;;;3.28;;
13879;SDS011;7010;48.200;16.332;2022-09-27T05:28:40;3.92;;;3.53;;
13879;SDS011;7010;48.200;16.332;2022-09-27T05:31:09;4.00;;;3.70;;
13879;SDS011;7010;48.200;16.332;2022-09-27T05:33:41;3.53;;;3.22;;
13879;SDS011;7010;48.200;16.332;2022-09-27T05:36:09;3.72;;;3.42;;
13879;SDS011;7010;48.200;16.332;2022-09-27T05:38:37;4.50;;;4.07;;
13879;SDS011;7010;48.200;16.332;2022-09-27T05:41:08;3.38;;;3.17;;
13879;SDS011;7010;48.200;16.332;2022-09-27T05:43:36;3.95;;;3.55;;
13879;SDS011;7010;48.200;16.332;2022-09-27T05:46:05;5.35;;;4.22;;
13879;SDS011;7010;48.200;16.332;2022-09-27T05:48:33;4.50;;;3.72;;
13879;SDS011;7010;48.200;16.332;2022-09-27T05:51:04;4.47;;;4.07;;
13879;SDS011;7010;48.200;16.332;2022-09-27T05:53:35;4.00;;;3.70;;
13879;SDS011;7010;48.200;16.332;2022-09-27T05:56:04;4.68;;;4.10;;
13879;SDS011;7010;48.200;16.332;2022-09-27T05:58:32;5.65;;;4.47;;
13879;SDS011;7010;48.200;16.332;2022-09-27T06:01:01;5.70;;;4.30;;
13879;SDS011;7010;48.200;16.332;2022-09-27T06:03:33;4.93;;;4.45;;
13879;SDS011;7010;48.200;16.332;2022-09-27T06:06:02;5.10;;;4.63;;
13879;SDS011;7010;48.200;16.332;2022-09-27T06:08:32;5.57;;;5.10;;
13879;SDS011;7010;48.200;16.332;2022-09-27T06:11:01;6.25;;;5.28;;
13879;SDS011;7010;48.200;16.332;2022-09-27T06:13:31;4.53;;;4.13;;
13879;SDS011;7010;48.200;16.332;2022-09-27T06:16:01;4.82;;;4.35;;
13879;SDS011;7010;48.200;16.332;2022-09-27T06:18:31;5.18;;;4.75;;
13879;SDS011;7010;48.200;16.332;2022-09-27T06:20:59;4.47;;;4.07;;
13879;SDS011;7010;48.200;16.332;2022-09-27T06:23:29;5.18;;;4.70;;
13879;SDS011;7010;48.200;16.332;2022-09-27T06:26:05;5.22;;;4.82;;
13879;SDS011;7010;48.200;16.332;2022-09-27T06:28:42;4.90;;;4.50;;
13879;SDS011;7010;48.200;16.332;2022-09-27T06:31:26;5.38;;;4.88;;
13879;SDS011;7010;48.200;16.332;2022-09-27T06:33:55;5.13;;;4.63;;
13879;SDS011;7010;48.200;16.332;2022-09-27T06:36:24;6.47;;;4.97;;
13879;SDS011;7010;48.200;16.332;2022-09-27T06:38:54;4.57;;;4.18;;
13879;SDS011;7010;48.200;16.332;2022-09-27T06:41:22;5.03;;;4.63;;
13879;SDS011;7010;48.200;16.332;2022-09-27T06:43:50;5.10;;;4.63;;
13879;SDS011;7010;48.200;16.332;2022-09-27T06:46:19;4.90;;;4.53;;
13879;SDS011;7010;48.200;16.332;2022-09-27T06:48:47;4.07;;;3.78;;
13879;SDS011;7010;48.200;16.332;2022-09-27T06:51:15;5.13;;;4.65;;
13879;SDS011;7010;48.200;16.332;2022-09-27T06:53:44;4.97;;;4.47;;
13879;SDS011;7010;48.200;16.332;2022-09-27T06:56:13;5.30;;;4.40;;
13879;SDS011;7010;48.200;16.332;2022-09-27T06:58:42;4.65;;;4.20;;
13879;SDS011;7010;48.200;16.332;2022-09-27T07:01:27;5.32;;;4.20;;
13879;SDS011;7010;48.200;16.332;2022-09-27T07:03:56;5.05;;;4.65;;
13879;SDS011;7010;48.200;16.332;2022-09-27T07:06:24;6.32;;;4.80;;
13879;SDS011;7010;48.200;16.332;2022-09-27T07:08:52;5.05;;;4.55;;
13879;SDS011;7010;48.200;16.332;2022-09-27T07:11:22;13.32;;;5.97;;
13879;SDS011;7010;48.200;16.332;2022-09-27T07:13:51;5.97;;;4.57;;
13879;SDS011;7010;48.200;16.332;2022-09-27T07:16:20;6.60;;;4.85;;
13879;SDS011;7010;48.200;16.332;2022-09-27T07:18:49;7.38;;;6.40;;
13879;SDS011;7010;48.200;16.332;2022-09-27T07:21:18;5.75;;;5.20;;
13879;SDS011;7010;48.200;16.332;2022-09-27T07:23:46;5.63;;;5.15;;
13879;SDS011;7010;48.200;16.332;2022-09-27T07:26:15;5.85;;;5.28;;
13879;SDS011;7010;48.200;16.332;2022-09-27T07:28:45;5.93;;;5.32;;
13879;SDS011;7010;48.200;16.332;2022-09-27T07:31:13;6.13;;;5.57;;
13879;SDS011;7010;48.200;16.332;2022-09-27T07:33:42;7.20;;;5.68;;
13879;SDS011;7010;48.200;16.332;2022-09-27T07:36:11;7.05;;;5.35;;
13879;SDS011;7010;48.200;16.332;2022-09-27T07:38:39;5.65;;;5.22;;
13879;SDS011;7010;48.200;16.332;2022-09-27T07:41:08;5.78;;;5.28;;
13879;SDS011;7010;48.200;16.332;2022-09-27T07:43:39;7.35;;;6.25;;
13879;SDS011;7010;48.200;16.332;2022-09-27T07:46:10;5.97;;;5.43;;
13879;SDS011;7010;48.200;16.332;2022-09-27T07:48:39;5.78;;;5.25;;
13879;SDS011;7010;48.200;16.332;2022-09-27T07:51:08;7.75;;;6.95;;
13879;SDS011;7010;48.200;16.332;2022-09-27T07:53:37;5.30;;;4.88;;
13879;SDS011;7010;48.200;16.332;2022-09-27T07:56:06;12.00;;;5.68;;
13879;SDS011;7010;48.200;16.332;2022-09-27T07:58:35;6.82;;;6.07;;
13879;SDS011;7010;48.200;16.332;2022-09-27T08:01:03;6.72;;;6.13;;
13879;SDS011;7010;48.200;16.332;2022-09-27T08:03:34;5.25;;;4.85;;
13879;SDS011;7010;48.200;16.332;2022-09-27T08:06:03;6.70;;;5.45;;
13879;SDS011;7010;48.200;16.332;2022-09-27T08:08:31;5.97;;;5.47;;
13879;SDS011;7010;48.200;16.332;2022-09-27T08:10:59;6.78;;;6.13;;
13879;SDS011;7010;48.200;16.332;2022-09-27T08:13:28;6.47;;;5.97;;
13879;SDS011;7010;48.200;16.332;2022-09-27T08:16:00;7.22;;;5.80;;
13879;SDS011;7010;48.200;16.332;2022-09-27T08:18:29;6.03;;;5.43;;
13879;SDS011;7010;48.200;16.332;2022-09-27T08:20:59;5.70;;;5.20;;
13879;SDS011;7010;48.200;16.332;2022-09-27T08:23:27;4.78;;;4.43;;
13879;SDS011;7010;48.200;16.332;2022-09-27T08:25:56;6.53;;;5.93;;
13879;SDS011;7010;48.200;16.332;2022-09-27T08:28:25;6.47;;;5.85;;
13879;SDS011;7010;48.200;16.332;2022-09-27T08:30:53;4.88;;;4.22;;
13879;SDS011;7010;48.200;16.332;2022-09-27T08:33:24;3.88;;;3.58;;
13879;SDS011;7010;48.200;16.332;2022-09-27T08:35:59;4.18;;;3.78;;
13879;SDS011;7010;48.200;16.332;2022-09-27T08:38:28;2.83;;;2.63;;
13879;SDS011;7010;48.200;16.332;2022-09-27T08:40:58;3.55;;;3.33;;
13879;SDS011;7010;48.200;16.332;2022-09-27T08:43:34;3.58;;;3.30;;
13879;SDS011;7010;48.200;16.332;2022-09-27T08:46:12;3.17;;;2.95;;
13879;SDS011;7010;48.200;16.332;2022-09-27T08:48:48;3.33;;;3.03;;
13879;SDS011;7010;48.200;16.332;2022-09-27T08:51:24;3.72;;;3.28;;
13879;SDS011;7010;48.200;16.332;2022-09-27T08:53:56;4.07;;;3.53;;
13879;SDS011;7010;48.200;16.332;2022-09-27T08:56:29;5.05;;;3.83;;
13879;SDS011;7010;48.200;16.332;2022-09-27T08:59:00;3.47;;;3.22;;
13879;SDS011;7010;48.200;16.332;2022-09-27T09:01:32;3.03;;;2.83;;
13879;SDS011;7010;48.200;16.332;2022-09-27T09:04:01;3.80;;;3.50;;
13879;SDS011;7010;48.200;16.332;2022-09-27T09:06:34;3.58;;;3.28;;
13879;SDS011;7010;48.200;16.332;2022-09-27T09:09:12;2.13;;;2.03;;
13879;SDS011;7010;48.200;16.332;2022-09-27T09:11:55;2.88;;;2.67;;
13879;SDS011;7010;48.200;16.332;2022-09-27T09:14:55;5.03;;;2.72;;
13879;SDS011;7010;48.200;16.332;2022-09-27T09:17:36;4.85;;;2.88;;
13879;SDS011;7010;48.200;16.332;2022-09-27T09:20:23;3.17;;;2.88;;
13879;SDS011;7010;48.200;16.332;2022-09-27T09:23:04;3.45;;;3.08;;
13879;SDS011;7010;48.200;16.332;2022-09-27T09:26:02;3.78;;;3.47;;
13879;SDS011;7010;48.200;16.332;2022-09-27T09:28:39;3.40;;;3.10;;
13879;SDS011;7010;48.200;16.332;2022-09-27T09:31:18;2.95;;;2.75;;
13879;SDS011;7010;48.200;16.332;2022-09-27T09:33:54;2.88;;;2.67;;
13879;SDS011;7010;48.200;16.332;2022-09-27T09:36:26;2.85;;;2.65;;
13879;SDS011;7010;48.200;16.332;2022-09-27T09:39:01;3.22;;;2.70;;
13879;SDS011;7010;48.200;16.332;2022-09-27T09:41:32;3.63;;;2.95;;
13879;SDS011;7010;48.200;16.332;2022-09-27T09:44:09;2.53;;;2.38;;
13879;SDS011;7010;48.200;16.332;2022-09-27T09:46:44;2.60;;;2.40;;
13879;SDS011;7010;48.200;16.332;2022-09-27T09:49:16;4.72;;;2.83;;
13879;SDS011;7010;48.200;16.332;2022-09-27T09:51:50;3.50;;;2.60;;
13879;SDS011;7010;48.200;16.332;2022-09-27T09:54:25;2.95;;;2.72;;
13879;SDS011;7010;48.200;16.332;2022-09-27T09:56:59;2.33;;;2.22;;
13879;SDS011;7010;48.200;16.332;2022-09-27T09:59:33;4.88;;;3.83;;
13879;SDS011;7010;48.200;16.332;2022-09-27T10:02:13;4.97;;;4.32;;
13879;SDS011;7010;48.200;16.332;2022-09-27T10:04:48;3.65;;;3.38;;
13879;SDS011;7010;48.200;16.332;2022-09-27T10:07:18;3.80;;;3.50;;
13879;SDS011;7010;48.200;16.332;2022-09-27T10:09:50;4.65;;;3.80;;
13879;SDS011;7010;48.200;16.332;2022-09-27T10:12:20;3.40;;;3.20;;
13879;SDS011;7010;48.200;16.332;2022-09-27T10:14:49;3.25;;;3.03;;
13879;SDS011;7010;48.200;16.332;2022-09-27T10:17:19;3.58;;;3.38;;
13879;SDS011;7010;48.200;16.332;2022-09-27T10:19:50;3.70;;;3.40;;
13879;SDS011;7010;48.200;16.332;2022-09-27T10:22:22;4.22;;;3.60;;
13879;SDS011;7010;48.200;16.332;2022-09-27T10:24:58;4.03;;;3.63;;
13879;SDS011;7010;48.200;16.332;2022-09-27T10:27:36;2.38;;;2.25;;
13879;SDS011;7010;48.200;16.332;2022-09-27T10:30:12;2.20;;;2.10;;
13879;SDS011;7010;48.200;16.332;2022-09-27T10:32:49;2.35;;;2.13;;
13879;SDS011;7010;48.200;16.332;2022-09-27T10:35:32;2.42;;;2.00;;
13879;SDS011;7010;48.200;16.332;2022-09-27T10:38:18;1.80;;;1.65;;
13879;SDS011;7010;48.200;16.332;2022-09-27T10:40:54;2.03;;;1.85;;
13879;SDS011;7010;48.200;16.332;2022-09-27T10:43:30;1.73;;;1.63;;
13879;SDS011;7010;48.200;16.332;2022-09-27T10:46:09;2.28;;;2.08;;
13879;SDS011;7010;48.200;16.332;2022-09-27T10:51:38;1.58;;;1.48;;
13879;SDS011;7010;48.200;16.332;2022-09-27T10:54:15;1.40;;;1.30;;
13879;SDS011;7010;48.200;16.332;2022-09-27T10:56:54;1.42;;;1.33;;
13879;SDS011;7010;48.200;16.332;2022-09-27T10:59:24;2.20;;;1.75;;
13879;SDS011;7010;48.200;16.332;2022-09-27T11:01:55;3.85;;;2.03;;
13879;SDS011;7010;48.200;16.332;2022-09-27T11:04:27;1.77;;;1.67;;
13879;SDS011;7010;48.200;16.332;2022-09-27T11:09:46;1.40;;;1.30;;
13879;SDS011;7010;48.200;16.332;2022-09-27T11:12:20;1.52;;;1.42;;
13879;SDS011;7010;48.200;16.332;2022-09-27T11:14:55;1.48;;;1.38;;
13879;SDS011;7010;48.200;16.332;2022-09-27T11:17:32;1.98;;;1.85;;
13879;SDS011;7010;48.200;16.332;2022-09-27T11:20:15;1.23;;;1.23;;
13879;SDS011;7010;48.200;16.332;2022-09-27T11:22:53;1.17;;;1.17;;
13879;SDS011;7010;48.200;16.332;2022-09-27T11:25:58;1.67;;;1.55;;
13879;SDS011;7010;48.200;16.332;2022-09-27T11:28:40;0.90;;;0.90;;
13879;SDS011;7010;48.200;16.332;2022-09-27T11:31:21;1.60;;;1.42;;
13879;SDS011;7010;48.200;16.332;2022-09-27T11:34:00;1.48;;;1.38;;
13879;SDS011;7010;48.200;16.332;2022-09-27T11:36:45;1.10;;;1.10;;
13879;SDS011;7010;48.200;16.332;2022-09-27T11:39:25;0.75;;;0.75;;
13879;SDS011;7010;48.200;16.332;2022-09-27T11:42:05;1.00;;;0.90;;
13879;SDS011;7010;48.200;16.332;2022-09-27T11:45:02;1.48;;;1.38;;
13879;SDS011;7010;48.200;16.332;2022-09-27T11:48:08;1.25;;;1.15;;
13879;SDS011;7010;48.200;16.332;2022-09-27T11:50:56;1.08;;;1.00;;
13879;SDS011;7010;48.200;16.332;2022-09-27T11:56:47;7.13;;;1.48;;
13879;SDS011;7010;48.200;16.332;2022-09-27T12:02:45;1.42;;;1.33;;
13879;SDS011;7010;48.200;16.332;2022-09-27T12:05:42;1.20;;;1.20;;
13879;SDS011;7010;48.200;16.332;2022-09-27T12:11:20;1.70;;;1.60;;
13879;SDS011;7010;48.200;16.332;2022-09-27T12:13:54;1.40;;;1.30;;
13879;SDS011;7010;48.200;16.332;2022-09-27T12:16:29;1.33;;;1.23;;
13879;SDS011;7010;48.200;16.332;2022-09-27T12:19:01;1.02;;;1.00;;
13879;SDS011;7010;48.200;16.332;2022-09-27T12:21:31;1.02;;;1.00;;
13879;SDS011;7010;48.200;16.332;2022-09-27T12:24:03;0.85;;;0.85;;
13879;SDS011;7010;48.200;16.332;2022-09-27T12:26:34;13.85;;;1.63;;
13879;SDS011;7010;48.200;16.332;2022-09-27T12:29:05;1.17;;;1.02;;
13879;SDS011;7010;48.200;16.332;2022-09-27T12:31:43;1.20;;;1.20;;
13879;SDS011;7010;48.200;16.332;2022-09-27T12:34:19;2.50;;;1.45;;
13879;SDS011;7010;48.200;16.332;2022-09-27T12:36:55;1.40;;;1.30;;
13879;SDS011;7010;48.200;16.332;2022-09-27T12:39:32;1.05;;;1.00;;
13879;SDS011;7010;48.200;16.332;2022-09-27T12:42:13;1.90;;;1.10;;
13879;SDS011;7010;48.200;16.332;2022-09-27T12:44:49;1.63;;;1.52;;
13879;SDS011;7010;48.200;16.332;2022-09-27T12:47:28;1.58;;;0.80;;
13879;SDS011;7010;48.200;16.332;2022-09-27T12:50:06;1.38;;;1.27;;
13879;SDS011;7010;48.200;16.332;2022-09-27T12:52:42;1.35;;;1.15;;
13879;SDS011;7010;48.200;16.332;2022-09-27T12:55:20;1.00;;;1.00;;
13879;SDS011;7010;48.200;16.332;2022-09-27T13:01:05;1.48;;;1.33;;
13879;SDS011;7010;48.200;16.332;2022-09-27T13:03:45;1.30;;;1.20;;
13879;SDS011;7010;48.200;16.332;2022-09-27T13:06:24;1.40;;;1.30;;
13879;SDS011;7010;48.200;16.332;2022-09-27T13:12:06;1.13;;;1.02;;
13879;SDS011;7010;48.200;16.332;2022-09-27T13:20:35;0.77;;;0.77;;
13879;SDS011;7010;48.200;16.332;2022-09-27T13:26:43;1.27;;;0.90;;
13879;SDS011;7010;48.200;16.332;2022-09-27T13:29:32;2.05;;;1.45;;
13879;SDS011;7010;48.200;16.332;2022-09-27T13:34:50;1.58;;;1.48;;
13879;SDS011;7010;48.200;16.332;2022-09-27T13:37:35;1.95;;;1.85;;
13879;SDS011;7010;48.200;16.332;2022-09-27T13:40:27;2.53;;;1.65;;
13879;SDS011;7010;48.200;16.332;2022-09-27T13:43:14;1.10;;;1.05;;
13879;SDS011;7010;48.200;16.332;2022-09-27T13:46:03;1.40;;;1.30;;
13879;SDS011;7010;48.200;16.332;2022-09-27T13:48:42;1.48;;;1.38;;
13879;SDS011;7010;48.200;16.332;2022-09-27T13:51:17;3.63;;;1.50;;
13879;SDS011;7010;48.200;16.332;2022-09-27T13:53:58;1.30;;;1.20;;
13879;SDS011;7010;48.200;16.332;2022-09-27T13:56:51;1.02;;;1.02;;
13879;SDS011;7010;48.200;16.332;2022-09-27T13:59:23;0.90;;;0.90;;
13879;SDS011;7010;48.200;16.332;2022-09-27T14:02:06;1.25;;;1.15;;
13879;SDS011;7010;48.200;16.332;2022-09-27T14:04:45;1.17;;;1.10;;
13879;SDS011;7010;48.200;16.332;2022-09-27T14:07:19;0.75;;;0.75;;
13879;SDS011;7010;48.200;16.332;2022-09-27T14:13:16;0.57;;;0.57;;
13879;SDS011;7010;48.200;16.332;2022-09-27T14:15:47;0.60;;;0.60;;
13879;SDS011;7010;48.200;16.332;2022-09-27T14:18:16;0.88;;;0.57;;
13879;SDS011;7010;48.200;16.332;2022-09-27T14:20:45;8.95;;;0.80;;
13879;SDS011;7010;48.200;16.332;2022-09-27T14:23:18;1.63;;;0.82;;
13879;SDS011;7010;48.200;16.332;2022-09-27T14:25:50;1.20;;;1.00;;
13879;SDS011;7010;48.200;16.332;2022-09-27T14:28:21;0.75;;;0.75;;
13879;SDS011;7010;48.200;16.332;2022-09-27T14:31:05;0.50;;;0.50;;
13879;SDS011;7010;48.200;16.332;2022-09-27T14:33:36;0.50;;;0.50;;
13879;SDS011;7010;48.200;16.332;2022-09-27T14:36:06;0.95;;;0.60;;
13879;SDS011;7010;48.200;16.332;2022-09-27T14:39:01;0.80;;;0.65;;
13879;SDS011;7010;48.200;16.332;2022-09-27T14:41:38;0.77;;;0.73;;
13879;SDS011;7010;48.200;16.332;2022-09-27T14:44:12;0.32;;;0.32;;
13879;SDS011;7010;48.200;16.332;2022-09-27T14:46:42;0.40;;;0.40;;
13879;SDS011;7010;48.200;16.332;2022-09-27T14:49:17;1.50;;;0.77;;
13879;SDS011;7010;48.200;16.332;2022-09-27T14:51:51;0.95;;;0.70;;
13879;SDS011;7010;48.200;16.332;2022-09-27T14:54:22;1.25;;;0.85;;
13879;SDS011;7010;48.200;16.332;2022-09-27T14:56:58;0.75;;;0.75;;
13879;SDS011;7010;48.200;16.332;2022-09-27T14:59:29;0.52;;;0.52;;
13879;SDS011;7010;48.200;16.332;2022-09-27T15:02:13;0.60;;;0.60;;
13879;SDS011;7010;48.200;16.332;2022-09-27T15:04:46;1.00;;;0.90;;
13879;SDS011;7010;48.200;16.332;2022-09-27T15:07:18;0.63;;;0.63;;
13879;SDS011;7010;48.200;16.332;2022-09-27T15:12:33;0.60;;;0.60;;
13879;SDS011;7010;48.200;16.332;2022-09-27T15:15:11;0.68;;;0.68;;
13879;SDS011;7010;48.200;16.332;2022-09-27T15:17:44;0.65;;;0.65;;
13879;SDS011;7010;48.200;16.332;2022-09-27T15:20:18;1.33;;;0.95;;
13879;SDS011;7010;48.200;16.332;2022-09-27T15:23:00;0.90;;;0.90;;
13879;SDS011;7010;48.200;16.332;2022-09-27T15:25:31;0.80;;;0.80;;
13879;SDS011;7010;48.200;16.332;2022-09-27T15:28:02;1.15;;;0.95;;
13879;SDS011;7010;48.200;16.332;2022-09-27T15:30:54;0.88;;;0.88;;
13879;SDS011;7010;48.200;16.332;2022-09-27T15:33:30;1.30;;;0.57;;
13879;SDS011;7010;48.200;16.332;2022-09-27T15:36:00;1.20;;;1.10;;
13879;SDS011;7010;48.200;16.332;2022-09-27T15:38:30;0.70;;;0.70;;
13879;SDS011;7010;48.200;16.332;2022-09-27T15:41:04;0.63;;;0.50;;
13879;SDS011;7010;48.200;16.332;2022-09-27T15:43:42;0.80;;;0.80;;
13879;SDS011;7010;48.200;16.332;2022-09-27T15:46:26;0.60;;;0.60;;
13879;SDS011;7010;48.200;16.332;2022-09-27T15:52:03;0.98;;;0.77;;
13879;SDS011;7010;48.200;16.332;2022-09-27T15:54:34;1.27;;;0.90;;
13879;SDS011;7010;48.200;16.332;2022-09-27T15:57:03;0.65;;;0.65;;
13879;SDS011;7010;48.200;16.332;2022-09-27T15:59:33;1.05;;;0.90;;
13879;SDS011;7010;48.200;16.332;2022-09-27T16:02:05;0.88;;;0.88;;
13879;SDS011;7010;48.200;16.332;2022-09-27T16:04:39;0.50;;;0.50;;
13879;SDS011;7010;48.200;16.332;2022-09-27T16:07:08;0.63;;;0.63;;
13879;SDS011;7010;48.200;16.332;2022-09-27T16:09:37;0.73;;;0.73;;
13879;SDS011;7010;48.200;16.332;2022-09-27T16:12:06;0.63;;;0.63;;
13879;SDS011;7010;48.200;16.332;2022-09-27T16:14:35;0.65;;;0.65;;